Kirkville, Iowa
Current Conditions -  °F | °C
As of 4:18 AM on Sunday 25 Jan 2015 (Local Time) from KOTM Reporting Station
Light Rain Light Rain  
Wind Chill: 38°   Ceiling: 1300
Heat Index: 38°   Visibility: 3mi
Dew Point: 38°   Wind: 3mph
Humidity: 100%   Direction: 80°E
Pressure: 29.55"   Gusts: NA
Location:  41.15°N, 92.5°W
Report Text: KOTM 251018Z AUTO 08003KT 3SM -RA BR BKN013 BKN020 OVC035 03/03 A2955 RMK AO2 P0001 T00330033
Loading
Personal Weather Stations






























Interactive Weather Map New forecast layout! Learn more

10-Day Weather Forecast

Advertisements
Track Severe Weather on mobile